Weather at Żar Airfield

Public forecast

Using degrees Celsius for public forecast. Weather courtesy of forecast.io.

Closest aviation weather report (METAR) to Żar Airfield

Closest report is Kraków John Paul II International Airport, 28.6 nm (53.0 km) NE. Retrieved 2021/06/15 15:30 UTC (1 minute ago):

EPKK 151530Z 24004KT 200V270 CAVOK 24/10 Q1017

Closest aviation forecast (TAF) to Żar Airfield

Closest forecast is Kraków John Paul II International Airport, 28.6 nm (53.0 km) NE. Retrieved 2021/06/15 15:37 UTC (0 seconds ago):

TAF EPKK 151430Z 1515/1615 VRB02KT CAVOK